createdAt,value
2018-02-14T00:00:40.704Z,96103.98
2018-02-14T00:04:03.974Z,96098.91
2018-02-14T00:07:27.262Z,96109.99
2018-02-14T00:10:50.540Z,96113.83
2018-02-14T00:14:13.820Z,96112.47
2018-02-14T00:17:37.109Z,96121.30
2018-02-14T00:21:01.169Z,96115.56
2018-02-14T00:24:24.628Z,96121.37
2018-02-14T00:27:47.902Z,96121.02
2018-02-14T00:31:11.181Z,96126.51
2018-02-14T00:34:34.508Z,96127.95
2018-02-14T00:37:57.776Z,96131.45
2018-02-14T00:41:21.051Z,96139.06
2018-02-14T00:44:45.093Z,96137.32
2018-02-14T00:48:09.157Z,96128.75
2018-02-14T00:51:32.429Z,96132.47
2018-02-14T00:54:55.743Z,96142.03
2018-02-14T00:58:19.072Z,96145.09
2018-02-14T01:01:42.392Z,96149.64
2018-02-14T01:05:05.749Z,96153.46
2018-02-14T01:08:29.019Z,96154.66
2018-02-14T01:11:52.398Z,96153.48
2018-02-14T01:15:15.720Z,96154.38
2018-02-14T01:18:44.636Z,96154.28
2018-02-14T01:22:08.737Z,96161.52
2018-02-14T01:25:32.019Z,96167.48
2018-02-14T01:28:55.342Z,96171.75
2018-02-14T01:32:18.662Z,96167.98
2018-02-14T01:35:41.926Z,96167.91
2018-02-14T01:39:05.277Z,96166.64
2018-02-14T01:42:29.311Z,96169.13
2018-02-14T01:45:52.586Z,96163.67
2018-02-14T01:49:15.922Z,96164.88
2018-02-14T01:52:39.214Z,96160.52
2018-02-14T01:56:02.496Z,96157.97
2018-02-14T01:59:25.810Z,96164.88
2018-02-14T02:02:49.146Z,96161.70
2018-02-14T02:06:12.424Z,96169.98
2018-02-14T02:09:36.554Z,96166.87
2018-02-14T02:12:59.824Z,96166.50
2018-02-14T02:16:23.142Z,96177.11
2018-02-14T02:19:46.408Z,96177.95
2018-02-14T02:23:09.706Z,96178.06
2018-02-14T02:26:32.975Z,96177.59
2018-02-14T02:29:56.298Z,96172.56
2018-02-14T02:33:19.559Z,96179.75
2018-02-14T02:36:42.834Z,96182.48
2018-02-14T02:40:24.177Z,96183.91
2018-02-14T02:43:47.469Z,96183.53
2018-02-14T02:47:11.533Z,96182.13
2018-02-14T02:50:34.867Z,96184.26
2018-02-14T02:53:58.241Z,96184.20
2018-02-14T02:57:21.501Z,96178.58
2018-02-14T03:00:44.776Z,96174.63
2018-02-14T03:04:08.817Z,96178.79
2018-02-14T03:07:32.895Z,96184.29
2018-02-14T03:10:56.227Z,96187.81
2018-02-14T03:14:20.295Z,96187.48
2018-02-14T03:17:43.581Z,96195.43
2018-02-14T03:21:07.691Z,96201.09
2018-02-14T03:24:30.951Z,96206.94
2018-02-14T03:27:54.345Z,96208.86
2018-02-14T03:31:17.632Z,96204.33
2018-02-14T03:34:41.749Z,96213.12
2018-02-14T03:38:05.081Z,96219.44
2018-02-14T03:41:29.207Z,96227.00
2018-02-14T03:44:52.541Z,96233.93
2018-02-14T03:48:16.643Z,96239.84
2018-02-14T03:51:40.753Z,96251.68
2018-02-14T03:55:04.032Z,96251.63
2018-02-14T03:58:28.082Z,96252.51
2018-02-14T04:01:51.477Z,96260.25
2018-02-14T04:05:14.771Z,96261.98
2018-02-14T04:08:38.039Z,96264.25
2018-02-14T04:12:01.323Z,96274.37
2018-02-14T04:15:24.619Z,96271.80
2018-02-14T04:18:48.658Z,96280.27
2018-02-14T04:22:11.937Z,96278.19
2018-02-14T04:25:35.213Z,96276.09
2018-02-14T04:28:58.514Z,96283.22
2018-02-14T04:32:21.843Z,96287.48
2018-02-14T04:35:45.129Z,96285.80
2018-02-14T04:39:08.413Z,96298.05
2018-02-14T04:42:32.457Z,96298.50
2018-02-14T04:45:55.752Z,96312.80
2018-02-14T04:49:19.012Z,96322.20
2018-02-14T04:52:42.293Z,96329.77
2018-02-14T04:56:06.344Z,96333.56
2018-02-14T04:59:30.464Z,96339.05
2018-02-14T05:02:53.730Z,96347.86
2018-02-14T05:06:17.012Z,96350.36
2018-02-14T05:09:41.081Z,96345.64
2018-02-14T05:13:04.408Z,96344.59
2018-02-14T05:16:27.767Z,96350.61
2018-02-14T05:19:51.098Z,96354.03
2018-02-14T05:23:14.372Z,96364.53
2018-02-14T05:26:38.409Z,96364.63
2018-02-14T05:30:02.459Z,96369.72
2018-02-14T05:33:25.728Z,96374.56
2018-02-14T05:36:48.999Z,96372.59
2018-02-14T05:40:12.268Z,96375.13
2018-02-14T05:43:35.571Z,96387.81
2018-02-14T05:46:59.601Z,96387.47
2018-02-14T05:50:23.646Z,96393.09
2018-02-14T05:53:46.939Z,96389.16
2018-02-14T05:57:10.211Z,96392.14
2018-02-14T06:00:33.503Z,96400.61
2018-02-14T06:03:56.823Z,96407.79
2018-02-14T06:07:20.893Z,96414.79
2018-02-14T06:10:44.979Z,96419.03
2018-02-14T06:14:08.252Z,96425.65
2018-02-14T06:17:32.327Z,96431.77
2018-02-14T06:20:55.698Z,96438.11
2018-02-14T06:24:18.973Z,96442.17
2018-02-14T06:27:42.245Z,96445.97
2018-02-14T06:31:06.372Z,96461.02
2018-02-14T06:34:29.651Z,96465.86
2018-02-14T06:37:53.709Z,96467.20
2018-02-14T06:41:16.995Z,96471.47
2018-02-14T06:44:40.303Z,96467.62
2018-02-14T06:48:03.579Z,96474.06
2018-02-14T06:51:26.963Z,96483.77
2018-02-14T06:54:50.991Z,96491.80
2018-02-14T06:58:16.201Z,96489.26
2018-02-14T07:01:39.527Z,96500.55
2018-02-14T07:05:03.558Z,96496.34
2018-02-14T07:08:28.375Z,96500.13
2018-02-14T07:11:53.159Z,96503.50
2018-02-14T07:15:16.448Z,96497.66
2018-02-14T07:18:40.571Z,96513.16
2018-02-14T07:22:03.843Z,96508.11
2018-02-14T07:25:27.891Z,96511.45
2018-02-14T07:28:52.021Z,96517.39
2018-02-14T07:32:16.149Z,96517.69
2018-02-14T07:35:39.525Z,96517.87
2018-02-14T07:39:02.798Z,96519.98
2018-02-14T07:42:26.851Z,96521.31
2018-02-14T07:45:50.451Z,96536.87
2018-02-14T07:49:13.773Z,96552.31
2018-02-14T07:52:37.830Z,96553.20
2018-02-14T07:56:01.159Z,96559.98
2018-02-14T07:59:24.433Z,96565.13
2018-02-14T08:02:47.801Z,96568.06
2018-02-14T08:06:11.086Z,96571.27
2018-02-14T08:09:34.453Z,96570.27
2018-02-14T08:12:57.699Z,96572.84
2018-02-14T08:16:21.039Z,96571.69
2018-02-14T08:19:44.293Z,96583.94
2018-02-14T08:23:08.608Z,96574.95
2018-02-14T08:26:32.668Z,96579.66
2018-02-14T08:29:55.937Z,96582.89
2018-02-14T08:33:19.216Z,96580.84
2018-02-14T08:36:42.592Z,96579.05
2018-02-14T08:40:05.866Z,96587.03
2018-02-14T08:43:29.997Z,96588.43
2018-02-14T08:46:53.346Z,96598.45
2018-02-14T08:50:16.661Z,96603.66
2018-02-14T08:53:39.930Z,96598.34
2018-02-14T08:57:03.214Z,96600.63
2018-02-14T09:00:26.485Z,96608.97
2018-02-14T09:03:49.810Z,96604.00
2018-02-14T09:07:13.180Z,96601.34
2018-02-14T09:10:36.490Z,96611.34
2018-02-14T09:13:59.770Z,96603.43
2018-02-14T09:17:24.627Z,96607.22
2018-02-14T09:20:49.738Z,96615.29
2018-02-14T09:24:13.784Z,96615.19
2018-02-14T09:27:37.855Z,96613.98
2018-02-14T09:31:01.979Z,96619.86
2018-02-14T09:34:25.505Z,96619.83
2018-02-14T09:37:48.804Z,96623.90
2018-02-14T09:41:12.935Z,96632.66
2018-02-14T09:44:36.969Z,96630.00
2018-02-14T09:48:01.021Z,96634.92
2018-02-14T09:51:25.079Z,96632.19
2018-02-14T09:54:48.332Z,96637.64
2018-02-14T09:58:11.623Z,96634.36
2018-02-14T10:01:35.755Z,96648.22
2018-02-14T10:04:59.023Z,96648.96
2018-02-14T10:08:22.396Z,96651.62
2018-02-14T10:11:45.686Z,96650.56
2018-02-14T10:15:09.122Z,96653.19
2018-02-14T10:18:32.441Z,96644.62
2018-02-14T10:21:55.811Z,96645.78
2018-02-14T10:25:19.191Z,96648.72
2018-02-14T10:28:42.633Z,96649.36
2018-02-14T10:32:06.801Z,96651.48
2018-02-14T10:35:30.131Z,96654.85
2018-02-14T10:38:54.219Z,96653.22
2018-02-14T10:42:17.712Z,96655.45
2018-02-14T10:45:41.146Z,96653.11
2018-02-14T10:49:04.394Z,96661.80
2018-02-14T10:52:28.515Z,96661.17
2018-02-14T10:55:52.565Z,96659.48
2018-02-14T10:59:16.605Z,96668.45
2018-02-14T11:02:46.338Z,96667.08
2018-02-14T11:06:13.537Z,96658.41
2018-02-14T11:09:36.992Z,96665.81
2018-02-14T11:13:01.028Z,96659.20
2018-02-14T11:16:25.080Z,96655.97
2018-02-14T11:19:49.234Z,96659.95
2018-02-14T11:23:12.566Z,96652.49
2018-02-14T11:26:35.984Z,96651.72
2018-02-14T11:29:59.285Z,96652.98
2018-02-14T11:33:22.559Z,96643.42
2018-02-14T11:36:45.832Z,96645.15
2018-02-14T11:40:09.119Z,96649.78
2018-02-14T11:43:33.249Z,96644.94
2018-02-14T11:46:56.520Z,96645.84
2018-02-14T11:50:20.582Z,96645.93
2018-02-14T11:53:43.852Z,96644.53
2018-02-14T11:57:07.192Z,96646.80
2018-02-14T12:00:31.666Z,96645.36
2018-02-14T12:03:54.974Z,96650.83
2018-02-14T12:07:18.280Z,96646.66
2018-02-14T12:10:42.389Z,96637.47
2018-02-14T12:14:05.966Z,96641.45
2018-02-14T12:17:29.312Z,96651.29
2018-02-14T12:20:52.723Z,96648.91
2018-02-14T12:24:16.870Z,96652.14
2018-02-14T12:27:40.967Z,96646.33
2018-02-14T12:31:05.036Z,96652.19
2018-02-14T12:34:28.612Z,96640.52
2018-02-14T12:37:52.036Z,96633.15
2018-02-14T12:41:15.454Z,96639.58
2018-02-14T12:44:39.698Z,96631.78
2018-02-14T12:48:03.184Z,96628.27
2018-02-14T12:51:26.627Z,96632.75
2018-02-14T12:54:50.058Z,96630.61
2018-02-14T12:58:15.655Z,96626.28
2018-02-14T13:01:39.061Z,96624.05
2018-02-14T13:05:02.401Z,96623.02
2018-02-14T13:08:25.887Z,96621.72
2018-02-14T13:11:49.365Z,96620.93
2018-02-14T13:15:13.344Z,96618.07
2018-02-14T13:18:37.495Z,96617.47
2018-02-14T13:22:00.941Z,96617.18
2018-02-14T13:25:24.373Z,96621.41
2018-02-14T13:28:47.727Z,96620.81
2018-02-14T13:32:11.888Z,96628.97
2018-02-14T13:35:35.434Z,96624.97
2018-02-14T13:38:58.839Z,96616.95
2018-02-14T13:42:22.157Z,96622.39
2018-02-14T13:45:45.476Z,96623.45
2018-02-14T13:49:08.809Z,96624.19
2018-02-14T13:52:32.940Z,96616.48
2018-02-14T13:55:56.212Z,96622.02
2018-02-14T13:59:20.266Z,96624.25
2018-02-14T14:02:43.593Z,96626.50
2018-02-14T14:06:06.948Z,96619.80
2018-02-14T14:09:31.076Z,96627.66
2018-02-14T14:12:54.343Z,96621.64
2018-02-14T14:16:18.406Z,96623.36
2018-02-14T14:19:41.742Z,96615.63
2018-02-14T14:23:05.027Z,96612.38
2018-02-14T14:26:29.089Z,96606.43
2018-02-14T14:29:52.365Z,96597.72
2018-02-14T14:33:16.807Z,96595.44
2018-02-14T14:36:40.086Z,96592.05
2018-02-14T14:40:04.125Z,96596.88
2018-02-14T14:43:28.195Z,96593.80
2018-02-14T14:46:51.486Z,96605.00
2018-02-14T14:50:15.510Z,96610.11
2018-02-14T14:53:39.652Z,96619.20
2018-02-14T14:57:03.806Z,96620.14
2018-02-14T15:00:27.920Z,96628.11
2018-02-14T15:03:51.209Z,96628.83
2018-02-14T15:07:15.887Z,96627.38
2018-02-14T15:10:40.100Z,96629.63
2018-02-14T15:14:03.497Z,96627.58
2018-02-14T15:17:26.789Z,96627.70
2018-02-14T15:20:50.915Z,96630.86
2018-02-14T15:24:15.197Z,96632.53
2018-02-14T15:27:38.513Z,96634.78
2018-02-14T15:31:01.807Z,96632.96
2018-02-14T15:34:25.207Z,96643.69
2018-02-14T15:37:48.543Z,96639.84
2018-02-14T15:41:12.830Z,96650.31
2018-02-14T15:44:37.108Z,96644.70
2018-02-14T15:48:01.323Z,96646.34
2018-02-14T15:51:24.689Z,96640.08
2018-02-14T15:54:48.789Z,96645.67
2018-02-14T15:58:12.168Z,96645.72
2018-02-14T16:01:35.468Z,96650.36
2018-02-14T16:04:59.613Z,96657.67
2018-02-14T16:08:23.680Z,96659.31
2018-02-14T16:11:47.145Z,96662.09
2018-02-14T16:15:10.439Z,96667.04
2018-02-14T16:18:33.759Z,96664.44
2018-02-14T16:21:57.033Z,96668.32
2018-02-14T16:25:20.317Z,96664.07
2018-02-14T16:28:43.573Z,96656.78
2018-02-14T16:32:06.904Z,96668.40
2018-02-14T16:35:30.326Z,96667.50
2018-02-14T16:38:53.772Z,96665.52
2018-02-14T16:42:17.888Z,96669.17
2018-02-14T16:45:41.189Z,96670.02
2018-02-14T16:49:04.469Z,96679.23
2018-02-14T16:52:27.752Z,96677.69
2018-02-14T16:55:51.800Z,96672.13
2018-02-14T16:59:15.914Z,96678.16
2018-02-14T17:02:39.321Z,96676.95
2018-02-14T17:06:02.763Z,96682.59
2018-02-14T17:09:27.396Z,96683.94
2018-02-14T17:12:50.728Z,96686.91
2018-02-14T17:16:14.001Z,96686.88
2018-02-14T17:19:38.041Z,96683.12
2018-02-14T17:23:02.189Z,96679.78
2018-02-14T17:26:26.251Z,96688.81
2018-02-14T17:29:49.580Z,96688.52
2018-02-14T17:33:14.552Z,96691.49
2018-02-14T17:36:38.156Z,96685.16
2018-02-14T17:40:03.545Z,96682.63
2018-02-14T17:43:29.376Z,96679.88
2018-02-14T17:46:53.554Z,96674.27
2018-02-14T17:50:17.612Z,96675.02
2018-02-14T17:53:41.020Z,96684.03
2018-02-14T17:57:05.186Z,96693.06
2018-02-14T18:00:29.397Z,96698.22
2018-02-14T18:03:53.497Z,96687.97
2018-02-14T18:07:19.244Z,96697.37
2018-02-14T18:10:42.596Z,96695.33
2018-02-14T18:14:05.890Z,96704.27
2018-02-14T18:17:29.973Z,96705.12
2018-02-14T18:20:54.055Z,96716.69
2018-02-14T18:24:17.352Z,96714.78
2018-02-14T18:27:40.706Z,96712.91
2018-02-14T18:31:04.257Z,96709.86
2018-02-14T18:34:27.659Z,96709.43
2018-02-14T18:37:51.728Z,96714.47
2018-02-14T18:41:15.825Z,96713.13
2018-02-14T18:44:40.036Z,96722.51
2018-02-14T18:48:03.419Z,96725.77
2018-02-14T18:51:27.812Z,96722.10
2018-02-14T18:54:52.339Z,96725.05
2018-02-14T18:58:17.247Z,96730.42
2018-02-14T19:01:41.725Z,96724.58
2018-02-14T19:05:06.538Z,96723.08
2018-02-14T19:08:31.488Z,96727.33
2018-02-14T19:11:55.581Z,96740.10
2018-02-14T19:15:19.709Z,96735.08
2018-02-14T19:18:43.895Z,96733.45
2018-02-14T19:22:08.961Z,96730.41
2018-02-14T19:25:32.994Z,96731.62
2018-02-14T19:28:57.126Z,96736.45
2018-02-14T19:32:20.395Z,96731.47
2018-02-14T19:35:43.746Z,96736.48
2018-02-14T19:39:07.249Z,96726.78
2018-02-14T19:42:31.296Z,96738.66
2018-02-14T19:45:55.340Z,96738.25
2018-02-14T19:49:18.631Z,96732.80
2018-02-14T19:52:41.931Z,96731.94
2018-02-14T19:56:05.316Z,96733.69
2018-02-14T19:59:28.593Z,96729.47
2018-02-14T20:02:52.684Z,96727.81
2018-02-14T20:06:16.939Z,96736.66
2018-02-14T20:09:40.338Z,96733.70
2018-02-14T20:13:05.741Z,96722.74
2018-02-14T20:16:29.056Z,96737.66
2018-02-14T20:19:52.411Z,96729.61
2018-02-14T20:23:16.508Z,96726.22
2018-02-14T20:26:39.897Z,96733.00
2018-02-14T20:30:03.228Z,96729.16
2018-02-14T20:33:28.521Z,96726.67
2018-02-14T20:36:52.594Z,96738.93
2018-02-14T20:40:16.678Z,96741.07
2018-02-14T20:43:41.367Z,96743.59
2018-02-14T20:47:05.490Z,96739.42
2018-02-14T20:50:29.621Z,96746.58
2018-02-14T20:53:52.992Z,96746.19
2018-02-14T20:57:16.315Z,96743.24
2018-02-14T21:00:40.652Z,96739.45
2018-02-14T21:04:03.969Z,96731.83
2018-02-14T21:07:27.293Z,96729.64
2018-02-14T21:10:50.583Z,96719.49
2018-02-14T21:14:14.691Z,96719.77
2018-02-14T21:17:37.980Z,96725.13
2018-02-14T21:21:01.419Z,96722.23
2018-02-14T21:24:26.843Z,96716.42
2018-02-14T21:27:50.316Z,96712.28
2018-02-14T21:31:13.813Z,96713.15
2018-02-14T21:34:38.100Z,96710.20
2018-02-14T21:38:01.416Z,96711.09
2018-02-14T21:41:24.873Z,96720.41
2018-02-14T21:44:48.248Z,96720.77
2018-02-14T21:48:11.663Z,96718.25
2018-02-14T21:51:35.823Z,96709.78
2018-02-14T21:54:59.302Z,96699.16
2018-02-14T21:58:23.398Z,96691.57
2018-02-14T22:01:47.501Z,96686.55
2018-02-14T22:05:10.908Z,96692.05
2018-02-14T22:08:34.970Z,96697.06
2018-02-14T22:11:58.344Z,96708.95
2018-02-14T22:15:21.657Z,96705.59
2018-02-14T22:18:45.075Z,96701.31
2018-02-14T22:22:08.367Z,96703.92
2018-02-14T22:25:31.675Z,96700.52
2018-02-14T22:28:55.103Z,96693.31
2018-02-14T22:32:18.405Z,96702.60
2018-02-14T22:35:41.676Z,96700.86
2018-02-14T22:39:04.952Z,96692.39
2018-02-14T22:42:28.231Z,96694.53
2018-02-14T22:45:52.383Z,96697.91
2018-02-14T22:49:15.698Z,96709.39
2018-02-14T22:52:39.878Z,96706.08
2018-02-14T22:56:04.012Z,96690.78
2018-02-14T22:59:28.081Z,96700.95
2018-02-14T23:02:51.360Z,96704.34
2018-02-14T23:06:14.740Z,96699.28
2018-02-14T23:09:38.057Z,96707.69
2018-02-14T23:13:02.108Z,96708.61
2018-02-14T23:16:26.228Z,96700.97
2018-02-14T23:19:49.600Z,96695.88
2018-02-14T23:23:12.896Z,96694.17
2018-02-14T23:26:36.220Z,96687.77
2018-02-14T23:29:59.527Z,96700.58
2018-02-14T23:33:23.762Z,96693.36
2018-02-14T23:36:47.806Z,96694.20
2018-02-14T23:40:11.110Z,96692.48
2018-02-14T23:43:35.228Z,96698.91
2018-02-14T23:46:58.505Z,96697.17
2018-02-14T23:50:22.715Z,96695.16
2018-02-14T23:53:46.841Z,96692.06
2018-02-14T23:57:11.041Z,96692.98
